createdAt,value
2017-08-10T00:00:58.277Z,74.70
2017-08-10T00:03:25.805Z,74.80
2017-08-10T00:05:53.289Z,74.70
2017-08-10T00:08:20.914Z,75.50
2017-08-10T00:10:48.437Z,75.80
2017-08-10T00:13:15.941Z,76.50
2017-08-10T00:15:44.194Z,79.10
2017-08-10T00:18:11.789Z,78.80
2017-08-10T00:20:39.341Z,77.80
2017-08-10T00:23:06.882Z,77.30
2017-08-10T00:25:34.421Z,79.10
2017-08-10T00:28:01.916Z,80.60
2017-08-10T00:30:29.426Z,80.80
2017-08-10T00:32:56.978Z,83.60
2017-08-10T00:35:24.484Z,85.10
2017-08-10T00:37:51.977Z,86.60
2017-08-10T00:40:19.587Z,86.30
2017-08-10T00:42:47.133Z,87.40
2017-08-10T00:45:14.673Z,87.50
2017-08-10T00:47:42.221Z,87.20
2017-08-10T00:50:09.763Z,88.00
2017-08-10T00:52:37.305Z,89.10
2017-08-10T00:55:04.818Z,88.10
2017-08-10T00:57:33.101Z,87.30
2017-08-10T01:00:00.633Z,87.20
2017-08-10T01:02:28.897Z,88.10
2017-08-10T01:04:57.150Z,90.00
2017-08-10T01:07:25.426Z,90.20
2017-08-10T01:09:52.982Z,90.20
2017-08-10T01:12:20.534Z,90.80
2017-08-10T01:14:48.077Z,90.90
2017-08-10T01:17:15.584Z,91.40
2017-08-10T01:19:43.865Z,93.30
2017-08-10T01:22:11.418Z,93.30
2017-08-10T01:24:38.956Z,92.90
2017-08-10T01:27:06.469Z,92.10
2017-08-10T01:29:34.765Z,93.10
2017-08-10T01:32:02.282Z,93.10
2017-08-10T01:34:30.546Z,92.30
2017-08-10T01:36:58.104Z,92.30
2017-08-10T01:39:25.598Z,93.00
2017-08-10T01:41:53.194Z,93.40
2017-08-10T01:44:20.697Z,93.30
2017-08-10T01:46:48.185Z,93.60
2017-08-10T01:49:15.707Z,93.70
2017-08-10T01:51:43.986Z,93.90
2017-08-10T01:54:11.531Z,93.80
2017-08-10T01:56:39.077Z,93.40
2017-08-10T01:59:06.622Z,93.60
2017-08-10T02:01:34.183Z,93.40
2017-08-10T02:04:01.697Z,93.80
2017-08-10T02:06:29.208Z,93.50
2017-08-10T02:08:56.793Z,93.70
2017-08-10T02:11:24.437Z,93.70
2017-08-10T02:13:51.985Z,93.20
2017-08-10T02:16:19.492Z,93.40
2017-08-10T02:18:46.989Z,93.40
2017-08-10T02:21:14.498Z,93.50
2017-08-10T02:23:42.097Z,93.10
2017-08-10T02:26:09.645Z,93.60
2017-08-10T02:28:37.177Z,93.00
2017-08-10T02:31:04.685Z,93.40
2017-08-10T02:33:32.958Z,92.20
2017-08-10T02:36:01.241Z,93.40
2017-08-10T02:38:28.741Z,93.40
2017-08-10T02:40:56.339Z,92.90
2017-08-10T02:43:23.881Z,93.20
2017-08-10T02:45:51.428Z,93.20
2017-08-10T02:48:18.970Z,93.30
2017-08-10T02:50:46.529Z,93.30
2017-08-10T02:53:14.050Z,93.30
2017-08-10T02:55:41.603Z,93.30
2017-08-10T02:58:09.145Z,93.40
2017-08-10T03:00:36.689Z,93.00
2017-08-10T03:03:04.198Z,92.80
2017-08-10T03:05:32.490Z,93.70
2017-08-10T03:08:00.009Z,93.70
2017-08-10T03:10:28.296Z,94.10
2017-08-10T03:12:55.806Z,94.00
2017-08-10T03:15:23.298Z,93.80
2017-08-10T03:17:50.881Z,93.60
2017-08-10T03:20:18.496Z,93.50
2017-08-10T03:22:46.050Z,94.00
2017-08-10T03:25:13.548Z,93.90
2017-08-10T03:27:41.060Z,93.90
2017-08-10T03:30:08.555Z,93.70
2017-08-10T03:32:36.082Z,93.40
2017-08-10T03:35:04.379Z,93.10
2017-08-10T03:37:31.921Z,93.10
2017-08-10T03:39:59.430Z,93.50
2017-08-10T03:42:26.925Z,93.30
2017-08-10T03:44:54.428Z,93.50
2017-08-10T03:47:22.689Z,93.60
2017-08-10T03:49:50.969Z,93.60
2017-08-10T03:52:18.538Z,93.60
2017-08-10T03:54:46.047Z,93.50
2017-08-10T03:57:13.618Z,93.40
2017-08-10T03:59:41.133Z,93.50
2017-08-10T04:02:08.621Z,93.60
2017-08-10T04:04:36.132Z,93.50
2017-08-10T04:07:03.621Z,93.20
2017-08-10T04:09:31.217Z,93.20
2017-08-10T04:11:58.731Z,93.30
2017-08-10T04:14:26.309Z,93.40
2017-08-10T04:16:53.880Z,93.20
2017-08-10T04:19:21.369Z,93.50
2017-08-10T04:21:48.914Z,93.50
2017-08-10T04:24:16.409Z,93.50
2017-08-10T04:26:44.023Z,93.60
2017-08-10T04:29:11.517Z,93.80
2017-08-10T04:31:39.795Z,93.70
2017-08-10T04:34:07.370Z,93.70
2017-08-10T04:36:34.997Z,93.50
2017-08-10T04:39:02.644Z,93.70
2017-08-10T04:41:30.190Z,93.40
2017-08-10T04:43:57.729Z,93.40
2017-08-10T04:46:25.241Z,93.30
2017-08-10T04:48:53.534Z,93.40
2017-08-10T04:51:21.025Z,93.40
2017-08-10T04:53:48.539Z,92.80
2017-08-10T04:56:16.069Z,93.10
2017-08-10T04:58:43.631Z,93.50
2017-08-10T05:01:11.153Z,93.40
2017-08-10T05:03:38.661Z,93.00
2017-08-10T05:06:06.922Z,93.60
2017-08-10T05:08:35.213Z,93.40
2017-08-10T05:11:02.756Z,93.40
2017-08-10T05:13:30.265Z,93.20
2017-08-10T05:15:57.853Z,93.50
2017-08-10T05:18:25.374Z,93.40
2017-08-10T05:20:52.881Z,93.50
2017-08-10T05:23:20.672Z,93.60
2017-08-10T05:25:48.233Z,93.70
2017-08-10T05:28:15.756Z,93.70
2017-08-10T05:30:43.249Z,93.70
2017-08-10T05:33:10.745Z,93.70
2017-08-10T05:35:38.253Z,93.90
2017-08-10T05:38:06.512Z,93.40
2017-08-10T05:40:34.100Z,93.40
2017-08-10T05:43:01.657Z,93.30
2017-08-10T05:45:29.177Z,93.40
2017-08-10T05:47:56.733Z,93.40
2017-08-10T05:50:24.245Z,93.50
2017-08-10T05:52:52.510Z,93.00
2017-08-10T05:55:20.793Z,93.10
2017-08-10T05:57:48.341Z,93.10
2017-08-10T06:00:15.833Z,92.80
2017-08-10T06:02:43.419Z,92.90
2017-08-10T06:05:10.921Z,93.40
2017-08-10T06:07:38.426Z,93.10
2017-08-10T06:10:05.913Z,93.50
2017-08-10T06:12:33.485Z,93.30
2017-08-10T06:15:01.044Z,93.20
2017-08-10T06:17:28.660Z,93.20
2017-08-10T06:19:56.158Z,93.20
2017-08-10T06:22:24.417Z,93.70
2017-08-10T06:24:52.701Z,93.80
2017-08-10T06:27:20.270Z,93.80
2017-08-10T06:29:47.784Z,93.40
2017-08-10T06:32:15.338Z,93.40
2017-08-10T06:34:42.881Z,93.40
2017-08-10T06:37:10.421Z,93.60
2017-08-10T06:39:37.968Z,93.50
2017-08-10T06:42:05.513Z,93.50
2017-08-10T06:44:33.157Z,93.60
2017-08-10T06:47:00.661Z,93.50
2017-08-10T06:49:28.189Z,93.70
2017-08-10T06:51:55.709Z,93.70
2017-08-10T06:54:23.229Z,93.70
2017-08-10T06:56:50.783Z,93.40
2017-08-10T06:59:18.330Z,93.90
2017-08-10T07:01:45.961Z,93.40
2017-08-10T07:04:13.457Z,93.60
2017-08-10T07:06:40.972Z,93.60
2017-08-10T07:09:08.461Z,93.40
2017-08-10T07:11:36.738Z,94.00
2017-08-10T07:14:04.297Z,93.70
2017-08-10T07:16:31.966Z,93.50
2017-08-10T07:18:59.453Z,93.50
2017-08-10T07:21:27.753Z,93.00
2017-08-10T07:23:55.270Z,92.70
2017-08-10T07:26:23.545Z,92.40
2017-08-10T07:28:51.032Z,92.50
2017-08-10T07:31:18.545Z,92.50
2017-08-10T07:33:46.108Z,92.40
2017-08-10T07:36:13.621Z,93.10
2017-08-10T07:38:41.137Z,93.00
2017-08-10T07:41:09.401Z,92.00
2017-08-10T07:43:37.694Z,92.20
2017-08-10T07:46:05.185Z,91.90
2017-08-10T07:48:32.776Z,92.10
2017-08-10T07:51:00.269Z,91.90
2017-08-10T07:53:27.865Z,92.20
2017-08-10T07:55:55.393Z,92.10
2017-08-10T07:58:22.908Z,91.10
2017-08-10T08:00:51.196Z,91.60
2017-08-10T08:03:18.702Z,91.70
2017-08-10T08:05:46.965Z,92.10
2017-08-10T08:08:15.261Z,92.80
2017-08-10T08:10:42.753Z,92.50
2017-08-10T08:13:10.257Z,91.40
2017-08-10T08:15:37.789Z,91.20
2017-08-10T08:18:05.355Z,91.10
2017-08-10T08:20:32.880Z,91.20
2017-08-10T08:23:00.381Z,91.30
2017-08-10T08:25:27.885Z,90.50
2017-08-10T08:27:55.376Z,91.50
2017-08-10T08:30:23.679Z,91.00
2017-08-10T08:32:51.173Z,91.00
2017-08-10T08:35:19.481Z,90.60
2017-08-10T08:37:46.969Z,90.80
2017-08-10T08:40:14.556Z,90.80
2017-08-10T08:42:42.045Z,90.20
2017-08-10T08:45:09.672Z,90.60
2017-08-10T08:47:37.193Z,88.10
2017-08-10T08:50:04.758Z,89.40
2017-08-10T08:52:32.293Z,89.00
2017-08-10T08:54:59.830Z,89.30
2017-08-10T08:57:27.374Z,87.70
2017-08-10T08:59:54.914Z,90.20
2017-08-10T09:02:22.405Z,87.10
2017-08-10T09:04:49.909Z,90.10
2017-08-10T09:07:17.405Z,90.50
2017-08-10T09:09:44.917Z,90.60
2017-08-10T09:12:12.429Z,90.70
2017-08-10T09:14:39.956Z,90.50
2017-08-10T09:17:07.454Z,89.60
2017-08-10T09:19:35.059Z,90.00
2017-08-10T09:22:02.565Z,90.20
2017-08-10T09:24:30.157Z,90.00
2017-08-10T09:26:57.697Z,88.40
2017-08-10T09:29:25.237Z,90.00
2017-08-10T09:31:52.805Z,90.20
2017-08-10T09:34:20.306Z,90.60
2017-08-10T09:36:48.577Z,90.60
2017-08-10T09:39:16.069Z,90.60
2017-08-10T09:41:43.673Z,90.10
2017-08-10T09:44:11.162Z,91.10
2017-08-10T09:46:38.653Z,90.50
2017-08-10T09:49:06.160Z,90.80
2017-08-10T09:51:33.741Z,90.60
2017-08-10T09:54:01.288Z,90.50
2017-08-10T09:56:28.859Z,90.90
2017-08-10T09:58:56.365Z,90.60
2017-08-10T10:01:23.857Z,91.00
2017-08-10T10:03:51.370Z,91.30
2017-08-10T10:06:18.865Z,90.60
2017-08-10T10:08:46.388Z,90.30
2017-08-10T10:11:13.996Z,89.80
2017-08-10T10:13:41.545Z,90.40
2017-08-10T10:16:09.087Z,90.80
2017-08-10T10:18:36.586Z,91.10
2017-08-10T10:21:04.101Z,91.20
2017-08-10T10:23:31.597Z,91.20
2017-08-10T10:25:59.157Z,90.40
2017-08-10T10:28:26.705Z,88.30
2017-08-10T10:30:54.209Z,89.50
2017-08-10T10:33:21.796Z,88.80
2017-08-10T10:35:49.443Z,88.70
2017-08-10T10:38:16.948Z,88.20
2017-08-10T10:40:45.281Z,88.90
2017-08-10T10:43:12.790Z,88.80
2017-08-10T10:45:40.288Z,90.20
2017-08-10T10:48:07.792Z,88.50
2017-08-10T10:50:35.317Z,88.40
2017-08-10T10:53:02.861Z,88.50
2017-08-10T10:55:30.354Z,88.80
2017-08-10T10:57:57.949Z,90.10
2017-08-10T11:00:25.489Z,90.00
2017-08-10T11:02:53.001Z,90.80
2017-08-10T11:05:21.296Z,91.00
2017-08-10T11:07:48.836Z,90.60
2017-08-10T11:10:16.385Z,90.70
2017-08-10T11:12:43.900Z,90.70
2017-08-10T11:15:12.194Z,91.00
2017-08-10T11:17:39.689Z,91.00
2017-08-10T11:20:07.377Z,91.10
2017-08-10T11:22:34.873Z,91.30
2017-08-10T11:25:02.464Z,90.90
2017-08-10T11:27:29.968Z,90.40
2017-08-10T11:29:57.554Z,90.60
2017-08-10T11:32:25.105Z,90.30
2017-08-10T11:34:52.649Z,90.70
2017-08-10T11:37:20.139Z,90.80
2017-08-10T11:39:47.728Z,90.50
2017-08-10T11:42:15.269Z,90.60
2017-08-10T11:44:42.875Z,90.00
2017-08-10T11:47:10.461Z,88.20
2017-08-10T11:49:38.009Z,89.90
2017-08-10T11:52:05.544Z,88.60
2017-08-10T11:54:33.202Z,90.10
2017-08-10T11:57:00.892Z,89.70
2017-08-10T11:59:28.393Z,90.60
2017-08-10T12:01:55.907Z,90.40
2017-08-10T12:04:24.169Z,89.80
2017-08-10T12:06:52.479Z,89.80
2017-08-10T12:09:20.001Z,89.90
2017-08-10T12:11:47.542Z,88.40
2017-08-10T12:14:15.086Z,87.80
2017-08-10T12:16:42.629Z,88.60
2017-08-10T12:19:10.199Z,89.00
2017-08-10T12:21:37.841Z,87.70
2017-08-10T12:24:05.352Z,87.70
2017-08-10T12:26:32.909Z,88.00
2017-08-10T12:29:00.419Z,88.20
2017-08-10T12:31:28.685Z,85.10
2017-08-10T12:33:56.961Z,87.00
2017-08-10T12:36:24.542Z,87.00
2017-08-10T12:38:52.048Z,86.70
2017-08-10T12:41:19.605Z,84.20
2017-08-10T12:43:47.115Z,84.70
2017-08-10T12:46:15.377Z,85.90
2017-08-10T12:48:43.706Z,86.50
2017-08-10T12:51:11.205Z,86.90
2017-08-10T12:53:38.724Z,86.20
2017-08-10T12:56:06.983Z,86.40
2017-08-10T12:58:35.285Z,87.50
2017-08-10T13:01:02.777Z,86.90
2017-08-10T13:03:30.369Z,87.60
2017-08-10T13:05:57.921Z,87.50
2017-08-10T13:08:25.413Z,86.40
2017-08-10T13:10:52.926Z,86.30
2017-08-10T13:13:20.441Z,86.20
2017-08-10T13:15:47.949Z,86.90
2017-08-10T13:18:15.529Z,84.90
2017-08-10T13:20:43.039Z,85.70
2017-08-10T13:23:11.296Z,87.10
2017-08-10T13:25:38.876Z,86.80
2017-08-10T13:28:06.425Z,85.10
2017-08-10T13:30:33.949Z,86.20
2017-08-10T13:33:02.324Z,86.90
2017-08-10T13:35:29.879Z,86.70
2017-08-10T13:37:57.461Z,88.10
2017-08-10T13:40:25.067Z,88.50
2017-08-10T13:42:52.569Z,88.60
2017-08-10T13:45:20.153Z,87.40
2017-08-10T13:47:47.700Z,86.30
2017-08-10T13:50:15.241Z,83.90
2017-08-10T13:52:42.786Z,85.80
2017-08-10T13:55:10.277Z,85.00
2017-08-10T13:57:37.785Z,85.00
2017-08-10T14:00:05.274Z,84.40
2017-08-10T14:02:32.863Z,87.20
2017-08-10T14:05:00.352Z,87.40
2017-08-10T14:07:27.865Z,86.40
2017-08-10T14:09:55.374Z,86.10
2017-08-10T14:12:22.881Z,87.50
2017-08-10T14:14:50.472Z,84.70
2017-08-10T14:17:18.005Z,85.70
2017-08-10T14:19:45.562Z,84.80
2017-08-10T14:22:13.104Z,86.20
2017-08-10T14:24:40.649Z,86.00
2017-08-10T14:27:08.151Z,84.70
2017-08-10T14:29:35.741Z,85.00
2017-08-10T14:32:03.237Z,84.50
2017-08-10T14:34:30.751Z,86.50
2017-08-10T14:36:58.250Z,86.70
2017-08-10T14:39:26.539Z,86.80
2017-08-10T14:41:54.029Z,86.80
2017-08-10T14:44:21.617Z,86.90
2017-08-10T14:46:49.162Z,85.50
2017-08-10T14:49:16.804Z,85.30
2017-08-10T14:51:44.293Z,86.00
2017-08-10T14:54:11.801Z,84.90
2017-08-10T14:56:39.338Z,86.50
2017-08-10T14:59:06.905Z,87.10
2017-08-10T15:01:34.431Z,85.90
2017-08-10T15:04:01.971Z,85.50
2017-08-10T15:06:29.469Z,87.00
2017-08-10T15:08:56.958Z,87.10
2017-08-10T15:11:24.601Z,88.40
2017-08-10T15:13:52.102Z,86.80
2017-08-10T15:16:19.637Z,87.20
2017-08-10T15:18:47.121Z,88.20
2017-08-10T15:21:14.672Z,89.10
2017-08-10T15:23:42.220Z,90.00
2017-08-10T15:26:09.725Z,90.00
2017-08-10T15:28:37.304Z,87.90
2017-08-10T15:31:04.853Z,89.80
2017-08-10T15:33:32.408Z,90.40
2017-08-10T15:35:59.912Z,90.10
2017-08-10T15:38:27.489Z,89.80
2017-08-10T15:40:55.001Z,89.80
2017-08-10T15:43:23.326Z,90.40
2017-08-10T15:45:50.840Z,90.40
2017-08-10T15:48:18.388Z,90.40
2017-08-10T15:50:45.916Z,90.80
2017-08-10T15:53:13.468Z,91.10
2017-08-10T15:55:40.969Z,90.30
2017-08-10T15:58:08.554Z,90.60
2017-08-10T16:00:36.050Z,90.90
2017-08-10T16:03:03.561Z,90.80
2017-08-10T16:05:31.081Z,90.40
2017-08-10T16:07:58.593Z,90.70
2017-08-10T16:10:26.906Z,90.90
2017-08-10T16:12:54.416Z,90.90
2017-08-10T16:15:21.915Z,90.80
2017-08-10T16:17:49.425Z,91.20
2017-08-10T16:20:16.917Z,91.10
2017-08-10T16:22:44.505Z,91.00
2017-08-10T16:25:12.047Z,90.30
2017-08-10T16:27:39.538Z,90.70
2017-08-10T16:30:07.054Z,90.40
2017-08-10T16:32:34.547Z,90.00
2017-08-10T16:35:02.126Z,89.80
2017-08-10T16:37:29.694Z,90.40
2017-08-10T16:39:57.214Z,90.80
2017-08-10T16:42:24.757Z,91.10
2017-08-10T16:44:52.322Z,91.00
2017-08-10T16:47:19.933Z,90.60
2017-08-10T16:49:47.491Z,89.80
2017-08-10T16:52:15.028Z,90.10
2017-08-10T16:54:42.538Z,90.20
2017-08-10T16:57:10.833Z,90.40
2017-08-10T16:59:38.373Z,90.30
2017-08-10T17:02:05.866Z,91.00
2017-08-10T17:04:33.378Z,90.70
2017-08-10T17:07:00.873Z,90.60
2017-08-10T17:09:28.389Z,90.80
2017-08-10T17:11:55.901Z,90.60
2017-08-10T17:14:23.393Z,91.10
2017-08-10T17:16:50.905Z,91.40
2017-08-10T17:19:18.441Z,91.30
2017-08-10T17:21:45.951Z,91.90
2017-08-10T17:24:14.219Z,91.90
2017-08-10T17:26:41.773Z,91.90
2017-08-10T17:29:09.318Z,92.20
2017-08-10T17:31:36.857Z,92.30
2017-08-10T17:34:04.353Z,92.40
2017-08-10T17:36:31.950Z,92.60
2017-08-10T17:38:59.493Z,92.90
2017-08-10T17:41:27.037Z,92.70
2017-08-10T17:43:54.605Z,93.00
2017-08-10T17:46:22.225Z,92.40
2017-08-10T17:48:49.741Z,92.40
2017-08-10T17:51:18.005Z,92.60
2017-08-10T17:53:46.393Z,92.80
2017-08-10T17:56:13.881Z,92.80
2017-08-10T17:58:41.500Z,93.00
2017-08-10T18:01:08.999Z,92.80
2017-08-10T18:03:37.281Z,92.80
2017-08-10T18:06:04.769Z,92.80
2017-08-10T18:08:32.282Z,92.70
2017-08-10T18:10:59.810Z,92.70
2017-08-10T18:13:27.345Z,92.50
2017-08-10T18:15:54.841Z,92.70
2017-08-10T18:18:22.357Z,93.00
2017-08-10T18:20:49.849Z,92.80
2017-08-10T18:23:18.218Z,93.30
2017-08-10T18:25:45.777Z,93.30
2017-08-10T18:28:13.317Z,93.30
2017-08-10T18:30:40.825Z,93.50
2017-08-10T18:33:09.112Z,93.60
2017-08-10T18:35:36.665Z,93.50
2017-08-10T18:38:04.218Z,93.60
2017-08-10T18:40:31.725Z,93.20
2017-08-10T18:43:00.019Z,93.50
2017-08-10T18:45:29.546Z,93.50
2017-08-10T18:47:57.157Z,93.20
2017-08-10T18:50:24.669Z,93.60
2017-08-10T18:52:52.962Z,93.70
2017-08-10T18:55:20.527Z,93.40
2017-08-10T18:57:48.021Z,93.50
2017-08-10T19:00:16.326Z,93.70
2017-08-10T19:02:43.870Z,93.70
2017-08-10T19:05:11.383Z,93.80
2017-08-10T19:07:38.943Z,93.80
2017-08-10T19:10:06.510Z,93.70
2017-08-10T19:12:34.001Z,93.70
2017-08-10T19:15:01.609Z,93.80
2017-08-10T19:17:29.197Z,93.80
2017-08-10T19:19:56.805Z,93.80
2017-08-10T19:22:24.349Z,94.10
2017-08-10T19:24:51.861Z,94.10
2017-08-10T19:27:20.158Z,94.00
2017-08-10T19:29:47.665Z,93.90
2017-08-10T19:32:15.978Z,94.00
2017-08-10T19:34:43.597Z,94.00
2017-08-10T19:37:11.105Z,94.00
2017-08-10T19:39:38.614Z,94.20
2017-08-10T19:42:06.120Z,93.50
2017-08-10T19:44:33.678Z,93.10
2017-08-10T19:47:01.221Z,93.30
2017-08-10T19:49:28.768Z,92.80
2017-08-10T19:51:56.309Z,93.20
2017-08-10T19:54:23.803Z,93.40
2017-08-10T19:56:51.314Z,94.10
2017-08-10T19:59:18.941Z,93.80
2017-08-10T20:01:46.452Z,93.90
2017-08-10T20:04:14.717Z,93.90
2017-08-10T20:06:43.000Z,93.90
2017-08-10T20:09:10.490Z,93.90
2017-08-10T20:11:39.529Z,93.90
2017-08-10T20:14:07.037Z,93.60
2017-08-10T20:16:34.602Z,94.10
2017-08-10T20:19:02.110Z,93.80
2017-08-10T20:21:30.365Z,93.70
2017-08-10T20:23:58.637Z,93.90
2017-08-10T20:26:26.915Z,93.60
2017-08-10T20:28:54.426Z,93.60
2017-08-10T20:31:22.690Z,93.80
2017-08-10T20:33:50.985Z,93.80
2017-08-10T20:36:18.572Z,93.50
2017-08-10T20:38:46.169Z,93.60
2017-08-10T20:41:13.721Z,93.70
2017-08-10T20:43:41.257Z,93.70
2017-08-10T20:46:08.831Z,93.80
2017-08-10T20:48:36.317Z,93.50
2017-08-10T20:51:03.835Z,93.50
2017-08-10T20:53:31.341Z,93.50
2017-08-10T20:55:58.880Z,93.80
2017-08-10T20:58:26.529Z,93.50
2017-08-10T21:00:54.042Z,93.70
2017-08-10T21:03:22.357Z,93.70
2017-08-10T21:05:49.866Z,93.70
2017-08-10T21:08:17.421Z,93.60
2017-08-10T21:10:44.968Z,93.80
2017-08-10T21:13:12.465Z,94.00
2017-08-10T21:15:40.053Z,93.90
2017-08-10T21:18:07.553Z,93.80
2017-08-10T21:20:35.062Z,94.00
2017-08-10T21:23:02.551Z,93.80
2017-08-10T21:25:30.854Z,94.00
2017-08-10T21:27:58.345Z,94.00
2017-08-10T21:30:25.869Z,93.80
2017-08-10T21:32:53.363Z,94.00
2017-08-10T21:35:20.921Z,94.00
2017-08-10T21:37:48.417Z,94.10
2017-08-10T21:40:16.001Z,94.30
2017-08-10T21:42:43.981Z,94.10
2017-08-10T21:45:11.477Z,94.20
2017-08-10T21:47:39.778Z,94.40
2017-08-10T21:50:07.317Z,94.40
2017-08-10T21:52:34.853Z,94.20
2017-08-10T21:55:02.353Z,94.30
2017-08-10T21:57:30.049Z,94.40
2017-08-10T21:59:57.712Z,94.40
2017-08-10T22:02:25.246Z,94.30
2017-08-10T22:04:52.741Z,94.30
2017-08-10T22:07:21.045Z,94.50
2017-08-10T22:09:48.581Z,94.20
2017-08-10T22:12:16.121Z,94.20
2017-08-10T22:14:43.629Z,93.90
2017-08-10T22:17:11.125Z,94.00
2017-08-10T22:19:38.755Z,94.10
2017-08-10T22:22:07.077Z,94.00
2017-08-10T22:24:35.353Z,93.90
2017-08-10T22:27:02.848Z,93.90
2017-08-10T22:29:30.353Z,94.00
2017-08-10T22:31:57.886Z,93.80
2017-08-10T22:34:25.405Z,93.80
2017-08-10T22:36:53.708Z,93.80
2017-08-10T22:39:21.242Z,93.80
2017-08-10T22:41:48.737Z,93.90
2017-08-10T22:44:16.320Z,93.80
2017-08-10T22:46:43.892Z,93.90
2017-08-10T22:49:11.389Z,93.90
2017-08-10T22:51:39.681Z,93.70
2017-08-10T22:54:07.217Z,93.70
2017-08-10T22:56:34.726Z,93.80
2017-08-10T22:59:02.993Z,94.10
2017-08-10T23:01:31.276Z,94.00
2017-08-10T23:03:58.826Z,94.00
2017-08-10T23:06:26.334Z,93.90
2017-08-10T23:08:53.909Z,93.70
2017-08-10T23:11:21.413Z,93.60
2017-08-10T23:13:49.024Z,93.50
2017-08-10T23:16:16.534Z,93.50
2017-08-10T23:18:44.022Z,93.60
2017-08-10T23:21:11.530Z,93.60
2017-08-10T23:23:39.034Z,93.60
2017-08-10T23:26:07.513Z,93.30
2017-08-10T23:28:35.014Z,93.30
2017-08-10T23:31:02.628Z,93.50
2017-08-10T23:33:30.145Z,93.40
2017-08-10T23:35:57.804Z,93.40
2017-08-10T23:38:25.322Z,93.40
2017-08-10T23:40:53.608Z,93.70
2017-08-10T23:43:21.114Z,93.70
2017-08-10T23:45:49.409Z,93.80
2017-08-10T23:48:16.913Z,93.70
2017-08-10T23:50:46.001Z,93.70
2017-08-10T23:53:14.316Z,94.00
2017-08-10T23:55:42.357Z,93.70
2017-08-10T23:58:09.901Z,93.50
